Time,TemperatureF,DewpointF,PressureIn,WindDirection,WindDirectionDegrees,WindSpeedMPH,WindSpeedGustMPH,Humidity,HourlyPrecipIn,Conditions,Clouds,dailyrainin,SolarRadiationWatts/m^2,SoftwareType,DateUTC
2013-02-24 09:32:00,38.0,34.0,-100.00,SW,224,7.0,9.0,84,-99.99,,,0.00,0.000000,,2013-02-24 17:32:00,
2013-02-24 09:42:00,38.0,34.0,-100.00,SW,224,7.0,9.0,84,-99.99,,,0.00,0.000000,,2013-02-24 17:42:00,
2013-02-24 09:52:00,38.0,34.0,-100.00,SW,224,7.0,9.0,84,-99.99,,,0.00,0.000000,,2013-02-24 17:52:00,
2013-02-24 10:01:00,38.0,34.0,-100.00,SW,224,7.0,9.0,84,-99.99,,,0.00,0.000000,,2013-02-24 18:01:00,
2013-02-24 10:11:00,38.0,34.0,-100.00,SW,224,7.0,9.0,84,-99.99,,,0.00,0.000000,,2013-02-24 18:11:00,
2013-02-24 10:32:00,44.0,35.0,-100.00,SW,221,12.0,18.0,71,0.00,,,-99.99,0.000000,,2013-02-24 18:32:00,
2013-02-24 10:42:00,44.0,35.0,-100.00,SW,221,12.0,18.0,71,0.00,,,-99.99,0.000000,,2013-02-24 18:42:00,
2013-02-24 10:52:00,44.0,35.0,-100.00,SW,221,12.0,18.0,71,0.00,,,-99.99,0.000000,,2013-02-24 18:52:00,
2013-02-24 11:01:00,44.0,35.0,-100.00,SW,221,12.0,18.0,71,0.00,,,-99.99,0.000000,,2013-02-24 19:01:00,
2013-02-24 11:11:00,44.0,35.0,-100.00,SW,221,12.0,18.0,71,0.00,,,-99.99,0.000000,,2013-02-24 19:11:00,
2013-02-24 11:32:00,47.0,35.0,-100.00,SW,224,12.0,19.0,64,0.00,,,-99.99,0.000000,,2013-02-24 19:32:00,
2013-02-24 11:42:00,47.0,35.0,-100.00,SW,224,12.0,19.0,64,0.00,,,-99.99,0.000000,,2013-02-24 19:42:00,
2013-02-24 11:52:00,47.0,35.0,-100.00,SW,224,12.0,19.0,64,0.00,,,-99.99,0.000000,,2013-02-24 19:52:00,
2013-02-24 12:02:00,47.0,35.0,-100.00,SW,224,12.0,19.0,64,0.00,,,-99.99,0.000000,,2013-02-24 20:02:00,
2013-02-24 12:11:00,47.0,35.0,-100.00,SW,224,12.0,19.0,64,0.00,,,-99.99,0.000000,,2013-02-24 20:11:00,
2013-02-24 12:32:00,48.0,33.0,-100.00,SW,229,10.0,17.0,55,0.00,,,-99.99,0.000000,,2013-02-24 20:32:00,
2013-02-24 12:42:00,48.0,33.0,-100.00,SW,229,10.0,17.0,55,0.00,,,-99.99,0.000000,,2013-02-24 20:42:00,
2013-02-24 12:52:00,48.0,33.0,-100.00,SW,229,10.0,17.0,55,0.00,,,-99.99,0.000000,,2013-02-24 20:52:00,
2013-02-24 13:01:00,48.0,33.0,-100.00,SW,229,10.0,17.0,55,0.00,,,-99.99,0.000000,,2013-02-24 21:01:00,
2013-02-24 13:11:00,48.0,33.0,-100.00,SW,229,10.0,17.0,55,0.00,,,-99.99,0.000000,,2013-02-24 21:11:00,
2013-02-24 13:42:00,50.0,36.0,-100.00,SW,231,11.0,17.0,59,0.00,,,-99.99,0.000000,,2013-02-24 21:42:00,
2013-02-24 13:52:00,50.0,36.0,-100.00,SW,231,11.0,17.0,59,0.00,,,-99.99,0.000000,,2013-02-24 21:52:00,
2013-02-24 14:01:00,50.0,36.0,-100.00,SW,231,11.0,17.0,59,0.00,,,-99.99,0.000000,,2013-02-24 22:01:00,
2013-02-24 14:11:00,50.0,36.0,-100.00,SW,231,11.0,17.0,59,0.00,,,-99.99,0.000000,,2013-02-24 22:11:00,
2013-02-24 14:42:00,50.0,37.0,-100.00,WSW,239,11.0,17.0,61,0.00,,,-99.99,0.000000,,2013-02-24 22:42:00,
2013-02-24 14:52:00,50.0,37.0,-100.00,WSW,239,11.0,17.0,61,0.00,,,-99.99,0.000000,,2013-02-24 22:52:00,
2013-02-24 15:02:00,50.0,37.0,-100.00,WSW,239,11.0,17.0,61,0.00,,,-99.99,0.000000,,2013-02-24 23:02:00,
2013-02-24 15:11:00,50.0,37.0,-100.00,WSW,239,11.0,17.0,61,0.00,,,-99.99,0.000000,,2013-02-24 23:11:00,
2013-02-24 15:32:00,52.0,38.0,-100.00,SW,225,12.0,19.0,59,0.00,,,-99.99,0.000000,,2013-02-24 23:32:00,
2013-02-24 15:42:00,52.0,38.0,-100.00,SW,225,12.0,19.0,59,0.00,,,-99.99,0.000000,,2013-02-24 23:42:00,
2013-02-24 15:52:00,52.0,38.0,-100.00,SW,225,12.0,19.0,59,0.00,,,-99.99,0.000000,,2013-02-24 23:52:00,
2013-02-24 16:01:00,52.0,38.0,-100.00,SW,225,12.0,19.0,59,0.00,,,-99.99,0.000000,,2013-02-25 00:01:00,
2013-02-24 16:11:00,52.0,38.0,-100.00,SW,225,12.0,19.0,59,0.00,,,-99.99,0.000000,,2013-02-25 00:11:00,
2013-02-24 16:42:00,48.0,36.0,-100.00,SW,231,10.0,18.0,63,0.00,,,-99.99,0.000000,,2013-02-25 00:42:00,
2013-02-24 16:52:00,48.0,36.0,-100.00,SW,231,10.0,18.0,63,0.00,,,-99.99,0.000000,,2013-02-25 00:52:00,
2013-02-24 17:01:00,48.0,36.0,-100.00,SW,231,10.0,18.0,63,0.00,,,-99.99,0.000000,,2013-02-25 01:01:00,
2013-02-24 17:11:00,48.0,36.0,-100.00,SW,231,10.0,18.0,63,0.00,,,-99.99,0.000000,,2013-02-25 01:11:00,
2013-02-24 17:42:00,42.0,33.0,-100.00,SW,222,8.0,16.0,71,0.00,,,-99.99,0.000000,,2013-02-25 01:42:00,
2013-02-24 17:52:00,42.0,33.0,-100.00,SW,222,8.0,16.0,71,0.00,,,-99.99,0.000000,,2013-02-25 01:52:00,
2013-02-24 18:01:00,42.0,33.0,-100.00,SW,222,8.0,16.0,71,0.00,,,-99.99,0.000000,,2013-02-25 02:01:00,
2013-02-24 18:11:00,42.0,33.0,-100.00,SW,222,8.0,16.0,71,0.00,,,-99.99,0.000000,,2013-02-25 02:11:00,
2013-02-24 18:42:00,39.0,34.0,-100.00,SW,226,11.0,13.0,83,0.00,,,-99.99,0.000000,,2013-02-25 02:42:00,
2013-02-24 18:52:00,39.0,34.0,-100.00,SW,226,11.0,13.0,83,0.00,,,-99.99,0.000000,,2013-02-25 02:52:00,
2013-02-24 19:01:00,39.0,34.0,-100.00,SW,226,11.0,13.0,83,0.00,,,-99.99,0.000000,,2013-02-25 03:01:00,
2013-02-24 19:11:00,39.0,34.0,-100.00,SW,226,11.0,13.0,83,0.00,,,-99.99,0.000000,,2013-02-25 03:11:00,
2013-02-24 19:32:00,39.0,32.0,-100.00,SW,219,9.0,16.0,77,0.00,,,-99.99,0.000000,,2013-02-25 03:32:00,
2013-02-24 19:42:00,39.0,32.0,-100.00,SW,219,9.0,16.0,77,0.00,,,-99.99,0.000000,,2013-02-25 03:42:00,
2013-02-24 19:52:00,39.0,32.0,-100.00,SW,219,9.0,16.0,77,0.00,,,-99.99,0.000000,,2013-02-25 03:52:00,
2013-02-24 20:01:00,39.0,32.0,-100.00,SW,219,9.0,16.0,77,0.00,,,-99.99,0.000000,,2013-02-25 04:01:00,
2013-02-24 20:11:00,39.0,32.0,-100.00,SW,219,9.0,16.0,77,0.00,,,-99.99,0.000000,,2013-02-25 04:11:00,
2013-02-24 20:32:00,39.0,31.0,-100.00,SW,230,18.0,22.0,74,0.00,,,-99.99,0.000000,,2013-02-25 04:32:00,
2013-02-24 20:42:00,39.0,31.0,-100.00,SW,230,18.0,22.0,74,0.00,,,-99.99,0.000000,,2013-02-25 04:42:00,
2013-02-24 20:52:00,39.0,31.0,-100.00,SW,230,18.0,22.0,74,0.00,,,-99.99,0.000000,,2013-02-25 04:52:00,
2013-02-24 21:01:00,39.0,31.0,-100.00,SW,230,18.0,22.0,74,0.00,,,-99.99,0.000000,,2013-02-25 05:01:00,
2013-02-24 21:11:00,39.0,31.0,-100.00,SW,230,18.0,22.0,74,0.00,,,-99.99,0.000000,,2013-02-25 05:11:00,
2013-02-24 21:32:00,39.0,31.0,-100.00,SW,230,18.0,24.0,72,0.00,,,-99.99,0.000000,,2013-02-25 05:32:00,
2013-02-24 21:42:00,39.0,31.0,-100.00,SW,230,18.0,24.0,72,0.00,,,-99.99,0.000000,,2013-02-25 05:42:00,
2013-02-24 21:52:00,39.0,31.0,-100.00,SW,230,18.0,24.0,72,0.00,,,-99.99,0.000000,,2013-02-25 05:52:00,
2013-02-24 22:02:00,39.0,31.0,-100.00,SW,230,18.0,24.0,72,0.00,,,-99.99,0.000000,,2013-02-25 06:02:00,
2013-02-24 22:11:00,39.0,31.0,-100.00,SW,230,18.0,24.0,72,0.00,,,-99.99,0.000000,,2013-02-25 06:11:00,
2013-02-24 22:32:00,38.0,34.0,-100.00,SW,227,10.0,21.0,87,0.00,,,-99.99,0.000000,,2013-02-25 06:32:00,
2013-02-24 22:42:00,38.0,34.0,-100.00,SW,227,10.0,21.0,87,0.00,,,-99.99,0.000000,,2013-02-25 06:42:00,
2013-02-24 22:52:00,38.0,34.0,-100.00,SW,227,10.0,21.0,87,0.00,,,-99.99,0.000000,,2013-02-25 06:52:00,
2013-02-24 23:01:00,38.0,34.0,-100.00,SW,227,10.0,21.0,87,0.00,,,-99.99,0.000000,,2013-02-25 07:01:00,
2013-02-24 23:11:00,38.0,34.0,-100.00,SW,227,10.0,21.0,87,0.00,,,-99.99,0.000000,,2013-02-25 07:11:00,
2013-02-24 23:42:00,37.0,36.0,-100.00,WSW,240,13.0,23.0,97,0.01,,,-99.99,0.000000,,2013-02-25 07:42:00,
2013-02-24 23:52:00,37.0,36.0,-100.00,WSW,240,13.0,23.0,97,0.01,,,-99.99,0.000000,,2013-02-25 07:52:00,